createdAt,value
2022-10-30T00:00:15.462Z,959.4285278
2022-10-30T00:01:16.135Z,959.4248657
2022-10-30T00:02:16.686Z,959.4476318
2022-10-30T00:03:17.167Z,959.4296875
2022-10-30T00:04:17.613Z,959.4439087
2022-10-30T00:05:18.266Z,959.4364014
2022-10-30T00:06:19.667Z,959.4124756
2022-10-30T00:07:20.668Z,959.4559326
2022-10-30T00:08:21.751Z,959.4494019
2022-10-30T00:09:22.288Z,959.4640503
2022-10-30T00:10:22.938Z,959.4434204
2022-10-30T00:11:23.641Z,959.4353027
2022-10-30T00:12:24.343Z,959.4841919
2022-10-30T00:13:24.919Z,959.480957
2022-10-30T00:14:25.405Z,959.444458
2022-10-30T00:15:25.861Z,959.4265747
2022-10-30T00:16:26.330Z,959.4329834
2022-10-30T00:17:26.862Z,959.4271851
2022-10-30T00:18:28.255Z,959.4053345
2022-10-30T00:19:28.780Z,959.3789063
2022-10-30T00:20:29.270Z,959.2995605
2022-10-30T00:21:29.966Z,959.2865601
2022-10-30T00:22:30.610Z,959.314209
2022-10-30T00:23:31.250Z,959.2695313
2022-10-30T00:24:31.911Z,959.2783813
2022-10-30T00:25:32.340Z,959.2516479
2022-10-30T00:26:33.009Z,959.2663574
2022-10-30T00:27:33.548Z,959.2874756
2022-10-30T00:28:34.978Z,959.1765747
2022-10-30T00:29:35.697Z,959.2164307
2022-10-30T00:30:36.191Z,959.1831055
2022-10-30T00:31:36.709Z,959.1772461
2022-10-30T00:32:37.249Z,959.1501465
2022-10-30T00:33:38.280Z,959.137207
2022-10-30T00:34:38.805Z,959.1361084
2022-10-30T00:35:39.334Z,959.1615601
2022-10-30T00:36:39.769Z,959.1696777
2022-10-30T00:38:11.714Z,959.1409302
2022-10-30T00:39:12.432Z,959.0968628
2022-10-30T00:40:13.085Z,959.0753174
2022-10-30T00:41:13.516Z,959.0877075
2022-10-30T00:42:13.977Z,959.0792236
2022-10-30T00:43:14.690Z,959.0863037
2022-10-30T00:44:15.400Z,959.0770264
2022-10-30T00:45:16.122Z,959.0737305
2022-10-30T00:46:16.727Z,959.1102295
2022-10-30T00:47:17.396Z,959.0488892
2022-10-30T00:48:18.560Z,959.0876465
2022-10-30T00:49:19.248Z,959.1272583
2022-10-30T00:50:20.084Z,959.1657715
2022-10-30T00:51:20.407Z,959.1402588
2022-10-30T00:52:20.890Z,959.171875
2022-10-30T00:53:21.392Z,959.164917
2022-10-30T00:54:22.195Z,959.1355591
2022-10-30T00:55:23.546Z,959.1469727
2022-10-30T00:56:24.197Z,959.1132813
2022-10-30T00:57:24.727Z,959.12854
2022-10-30T00:58:26.140Z,959.0759277
2022-10-30T00:59:26.805Z,959.1339111
2022-10-30T01:00:27.288Z,959.1287231
2022-10-30T01:01:27.955Z,959.1221924
2022-10-30T01:02:28.341Z,959.1645508
2022-10-30T01:03:28.783Z,959.1351318
2022-10-30T01:04:30.400Z,959.1531372
2022-10-30T01:05:29.911Z,959.1323242
2022-10-30T01:06:31.206Z,959.1730957
2022-10-30T01:07:31.717Z,959.1513062
2022-10-30T01:08:33.136Z,959.0639648
2022-10-30T01:09:33.828Z,959.0974731
2022-10-30T01:10:34.424Z,959.0943604
2022-10-30T01:11:35.079Z,959.0611572
2022-10-30T01:12:35.618Z,959.0931396
2022-10-30T01:13:36.050Z,959.0964355
2022-10-30T01:14:36.509Z,959.0606079
2022-10-30T01:15:37.334Z,959.0322876
2022-10-30T01:16:37.790Z,959.0615845
2022-10-30T01:17:38.225Z,959.0231323
2022-10-30T01:18:39.277Z,959.0599976
2022-10-30T01:20:10.252Z,959.0745239
2022-10-30T01:21:10.920Z,959.0106201
2022-10-30T01:22:11.581Z,959.0307617
2022-10-30T01:23:13.133Z,959.0454712
2022-10-30T01:24:13.600Z,959.0714722
2022-10-30T01:25:14.058Z,959.0769653
2022-10-30T01:26:14.721Z,959.0759277
2022-10-30T01:27:15.450Z,959.0987549
2022-10-30T01:28:16.634Z,959.0829468
2022-10-30T01:29:17.258Z,959.0689087
2022-10-30T01:30:17.737Z,959.0565796
2022-10-30T01:31:18.219Z,959.0662231
2022-10-30T01:32:18.687Z,959.0825195
2022-10-30T01:33:19.136Z,959.0587769
2022-10-30T01:34:19.603Z,959.0739136
2022-10-30T01:35:20.064Z,959.0690918
2022-10-30T01:36:20.805Z,959.0338135
2022-10-30T01:37:21.488Z,959.0722656
2022-10-30T01:38:23.043Z,959.0793457
2022-10-30T01:39:23.515Z,959.0836792
2022-10-30T01:40:23.971Z,959.0794678
2022-10-30T01:41:24.517Z,959.0664063
2022-10-30T01:42:24.931Z,959.0657959
2022-10-30T01:43:25.408Z,959.0876465
2022-10-30T01:44:25.888Z,959.0637207
2022-10-30T01:45:26.377Z,959.076416
2022-10-30T01:46:26.905Z,959.0178223
2022-10-30T01:47:27.420Z,959.0151367
2022-10-30T01:48:28.768Z,959.0323486
2022-10-30T01:49:29.775Z,959.0296631
2022-10-30T01:50:30.245Z,959.0264282
2022-10-30T01:51:30.712Z,958.9840698
2022-10-30T01:52:31.208Z,958.9488525
2022-10-30T01:53:31.750Z,958.9179077
2022-10-30T01:54:32.283Z,958.9195557
2022-10-30T01:55:32.798Z,958.8989258
2022-10-30T01:56:33.299Z,958.8908081
2022-10-30T01:57:33.721Z,958.8728027
2022-10-30T01:58:35.034Z,958.8897095
2022-10-30T01:59:35.485Z,958.8512573
2022-10-30T02:00:35.939Z,958.8267212
2022-10-30T02:01:36.580Z,958.789856
2022-10-30T02:02:37.177Z,958.8225098
2022-10-30T02:03:37.375Z,958.8126831
2022-10-30T02:04:37.847Z,958.8220215
2022-10-30T02:05:38.454Z,958.8121948
2022-10-30T02:07:10.300Z,958.8308105
2022-10-30T02:08:10.772Z,958.8128052
2022-10-30T02:09:11.763Z,958.788269
2022-10-30T02:10:12.286Z,958.8395386
2022-10-30T02:11:12.784Z,958.8502197
2022-10-30T02:12:13.258Z,958.8476563
2022-10-30T02:13:13.751Z,958.817627
2022-10-30T02:14:14.252Z,958.8654785
2022-10-30T02:15:14.720Z,958.8530273
2022-10-30T02:16:15.196Z,958.8428345
2022-10-30T02:17:15.695Z,958.8649902
2022-10-30T02:18:16.100Z,958.8444824
2022-10-30T02:19:17.283Z,958.8482666
2022-10-30T02:20:17.714Z,958.7820435
2022-10-30T02:21:18.142Z,958.7907715
2022-10-30T02:22:18.679Z,958.7810669
2022-10-30T02:23:19.124Z,958.7647095
2022-10-30T02:24:19.431Z,958.7463989
2022-10-30T02:25:19.848Z,958.7120972
2022-10-30T02:26:20.615Z,958.7192383
2022-10-30T02:27:21.119Z,958.7393799
2022-10-30T02:28:21.541Z,958.7012329
2022-10-30T02:29:22.801Z,958.7327881
2022-10-30T02:30:23.259Z,958.7220459
2022-10-30T02:31:23.817Z,958.6986084
2022-10-30T02:32:24.291Z,958.6829834
2022-10-30T02:33:24.758Z,958.682251
2022-10-30T02:34:25.259Z,958.7034912
2022-10-30T02:35:25.734Z,958.6628418
2022-10-30T02:36:26.198Z,958.7192383
2022-10-30T02:37:27.340Z,958.7159424
2022-10-30T02:38:27.758Z,958.7056274
2022-10-30T02:39:28.783Z,958.6837769
2022-10-30T02:40:29.281Z,958.6984253
2022-10-30T02:41:29.778Z,958.6978149
2022-10-30T02:42:30.264Z,958.6891479
2022-10-30T02:43:30.697Z,958.6914063
2022-10-30T02:44:31.191Z,958.7125854
2022-10-30T02:45:31.690Z,958.7076416
2022-10-30T02:46:32.189Z,958.6832886
2022-10-30T02:47:32.688Z,958.7151489
2022-10-30T02:48:33.215Z,958.6871338
2022-10-30T02:49:34.289Z,958.6691895
2022-10-30T02:50:34.758Z,958.6984253
2022-10-30T02:51:35.233Z,958.6785278
2022-10-30T02:52:35.748Z,958.6937256
2022-10-30T02:53:36.217Z,958.6773682
2022-10-30T02:54:36.673Z,958.6470337
2022-10-30T02:55:37.216Z,958.6350098
2022-10-30T02:56:37.770Z,958.6220093
2022-10-30T02:57:38.739Z,958.5998535
2022-10-30T02:59:10.052Z,958.6220093
2022-10-30T03:00:10.491Z,958.6340332
2022-10-30T03:01:11.014Z,958.6121826
2022-10-30T03:02:11.578Z,958.6150513
2022-10-30T03:03:12.580Z,958.5932007
2022-10-30T03:04:13.040Z,958.621582
2022-10-30T03:05:13.505Z,958.5367432
2022-10-30T03:06:13.986Z,958.5348511
2022-10-30T03:07:14.463Z,958.5292358
2022-10-30T03:08:14.999Z,958.5162354
2022-10-30T03:09:16.258Z,958.5151367
2022-10-30T03:10:16.712Z,958.5200195
2022-10-30T03:11:17.182Z,958.5564575
2022-10-30T03:12:17.609Z,958.5164185
2022-10-30T03:13:18.150Z,958.5238037
2022-10-30T03:14:18.600Z,958.5667725
2022-10-30T03:15:19.266Z,958.5690918
2022-10-30T03:16:19.718Z,958.5876465
2022-10-30T03:17:20.183Z,958.5853271
2022-10-30T03:18:20.884Z,958.5387573
2022-10-30T03:19:22.264Z,958.5061035
2022-10-30T03:20:22.719Z,958.5100098
2022-10-30T03:21:23.164Z,958.5409546
2022-10-30T03:22:23.644Z,958.5106201
2022-10-30T03:23:24.136Z,958.5228882
2022-10-30T03:24:24.638Z,958.5170288
2022-10-30T03:25:25.089Z,958.5378418
2022-10-30T03:26:25.535Z,958.5496826
2022-10-30T03:27:25.997Z,958.5236206
2022-10-30T03:28:26.497Z,958.5220337
2022-10-30T03:29:27.852Z,958.5166626
2022-10-30T03:30:28.320Z,958.5786133
2022-10-30T03:31:28.806Z,958.5546875
2022-10-30T03:32:29.253Z,958.5801392
2022-10-30T03:33:29.749Z,958.5638428
2022-10-30T03:34:30.191Z,958.5709229
2022-10-30T03:35:30.657Z,958.576416
2022-10-30T03:36:31.185Z,958.585144
2022-10-30T03:37:32.569Z,958.5916138
2022-10-30T03:38:33.054Z,958.5987549
2022-10-30T03:39:34.307Z,958.5814209
2022-10-30T03:40:34.759Z,958.6138916
2022-10-30T03:41:35.213Z,958.6220093
2022-10-30T03:42:35.709Z,958.6552124
2022-10-30T03:43:36.192Z,958.6428223
2022-10-30T03:44:36.668Z,958.6542358
2022-10-30T03:45:37.126Z,958.6916504
2022-10-30T03:46:38.063Z,958.6443481
2022-10-30T03:48:08.732Z,958.710022
2022-10-30T03:49:09.228Z,958.7079468
2022-10-30T03:50:10.283Z,958.6459961
2022-10-30T03:51:10.747Z,958.6831055
2022-10-30T03:52:11.309Z,958.6693726
2022-10-30T03:53:11.776Z,958.6826782
2022-10-30T03:54:12.299Z,958.6760864
2022-10-30T03:55:12.721Z,958.7022095
2022-10-30T03:56:13.240Z,958.7151489
2022-10-30T03:57:13.706Z,958.6802979
2022-10-30T03:58:14.175Z,958.7075806
2022-10-30T03:59:15.598Z,958.7345581
2022-10-30T04:00:16.110Z,958.7368774
2022-10-30T04:01:16.644Z,958.7189331
2022-10-30T04:02:17.164Z,958.741272
2022-10-30T04:03:18.091Z,958.7282104
2022-10-30T04:04:18.495Z,958.7548218
2022-10-30T04:05:18.909Z,958.7310181
2022-10-30T04:06:19.352Z,958.7237549
2022-10-30T04:07:19.877Z,958.7210693
2022-10-30T04:08:21.574Z,958.7705688
2022-10-30T04:09:22.604Z,958.7287598
2022-10-30T04:10:23.970Z,958.7163086
2022-10-30T04:11:23.650Z,958.7608643
2022-10-30T04:12:24.076Z,958.7451782
2022-10-30T04:13:24.573Z,958.7467041
2022-10-30T04:14:25.113Z,958.7629395
2022-10-30T04:15:25.610Z,958.7185669
2022-10-30T04:16:26.096Z,958.7836914
2022-10-30T04:17:26.565Z,958.7754517
2022-10-30T04:18:27.777Z,958.8244019
2022-10-30T04:19:28.231Z,958.8135986
2022-10-30T04:20:28.747Z,958.8216553
2022-10-30T04:21:29.243Z,958.8004761
2022-10-30T04:22:29.722Z,958.805481
2022-10-30T04:23:30.177Z,958.7956543
2022-10-30T04:24:30.635Z,958.7793579
2022-10-30T04:25:31.117Z,958.7744751
2022-10-30T04:26:31.632Z,958.750061
2022-10-30T04:27:32.256Z,958.7299194
2022-10-30T04:28:32.967Z,958.7288818
2022-10-30T04:29:33.495Z,958.765686
2022-10-30T04:30:33.948Z,958.7820435
2022-10-30T04:31:35.291Z,958.803833
2022-10-30T04:32:35.802Z,958.8118896
2022-10-30T04:33:37.077Z,958.7457275
2022-10-30T04:35:07.931Z,958.753418
2022-10-30T04:36:08.370Z,958.7583008
2022-10-30T04:37:08.872Z,958.7728271
2022-10-30T04:38:09.405Z,958.7175293
2022-10-30T04:39:09.843Z,958.7376709
2022-10-30T04:40:11.372Z,958.7668457
2022-10-30T04:41:11.870Z,958.7815552
2022-10-30T04:42:12.434Z,958.7577515
2022-10-30T04:43:12.911Z,958.7528076
2022-10-30T04:44:13.417Z,958.690918
2022-10-30T04:45:15.261Z,958.6873169
2022-10-30T04:46:14.450Z,958.6741943
2022-10-30T04:47:14.930Z,958.7321777
2022-10-30T04:48:15.435Z,958.7334595
2022-10-30T04:49:15.928Z,958.7262573
2022-10-30T04:50:17.351Z,958.703125
2022-10-30T04:51:17.823Z,958.717041
2022-10-30T04:52:18.311Z,958.7365723
2022-10-30T04:53:18.772Z,958.7463989
2022-10-30T04:54:19.291Z,958.7545166
2022-10-30T04:55:20.594Z,958.7203369
2022-10-30T04:56:21.015Z,958.7398682
2022-10-30T04:57:21.496Z,958.7095337
2022-10-30T04:58:21.980Z,958.6677856
2022-10-30T04:59:22.426Z,958.6629639
2022-10-30T05:00:23.821Z,958.6595459
2022-10-30T05:01:24.373Z,958.666748
2022-10-30T05:02:24.823Z,958.6454468
2022-10-30T05:03:25.189Z,958.640625
2022-10-30T05:04:25.652Z,958.6168823
2022-10-30T05:05:26.199Z,958.6276855
2022-10-30T05:06:27.290Z,958.5738525
2022-10-30T05:07:27.800Z,958.4973145
2022-10-30T05:08:28.277Z,958.5637207
2022-10-30T05:09:28.750Z,958.5158081
2022-10-30T05:10:29.835Z,958.5505981
2022-10-30T05:11:30.628Z,958.5365601
2022-10-30T05:12:31.424Z,958.5164185
2022-10-30T05:13:32.187Z,958.5154419
2022-10-30T05:14:32.763Z,958.5321045
2022-10-30T05:15:33.311Z,958.529541
2022-10-30T05:16:33.913Z,958.5418701
2022-10-30T05:17:34.565Z,958.5354614
2022-10-30T05:18:35.199Z,958.5234375
2022-10-30T05:19:35.690Z,958.5045166
2022-10-30T05:21:07.359Z,958.4909668
2022-10-30T05:22:08.074Z,958.4810791
2022-10-30T05:23:08.775Z,958.4696655
2022-10-30T05:24:09.609Z,958.4745483
2022-10-30T05:25:10.132Z,958.5039063
2022-10-30T05:26:10.664Z,958.5484619
2022-10-30T05:27:11.145Z,958.5272827
2022-10-30T05:28:11.977Z,958.4589233
2022-10-30T05:29:12.679Z,958.4898682
2022-10-30T05:30:14.135Z,958.4784546
2022-10-30T05:31:14.600Z,958.4784546
2022-10-30T05:32:15.340Z,958.4898682
2022-10-30T05:33:15.712Z,958.486084
2022-10-30T05:34:16.355Z,958.4806519
2022-10-30T05:35:17.112Z,958.470459
2022-10-30T05:36:17.618Z,958.467041
2022-10-30T05:37:18.069Z,958.5262451
2022-10-30T05:38:18.673Z,958.4464111
2022-10-30T05:39:19.464Z,958.4515381
2022-10-30T05:40:20.986Z,958.4481201
2022-10-30T05:41:21.673Z,958.3933105
2022-10-30T05:42:22.137Z,958.4434204
2022-10-30T05:43:22.586Z,958.4459229
2022-10-30T05:44:40.503Z,958.4536133
2022-10-30T05:45:23.981Z,958.4259644
2022-10-30T05:46:24.678Z,958.3875122
2022-10-30T05:47:25.161Z,958.4112549
2022-10-30T05:48:25.643Z,958.4193726
2022-10-30T05:49:26.270Z,958.4222412
2022-10-30T05:50:27.566Z,958.3782959
2022-10-30T05:51:28.324Z,958.4378662
2022-10-30T05:52:28.783Z,958.4503174
2022-10-30T05:53:29.312Z,958.4438477
2022-10-30T05:54:29.794Z,958.4477539
2022-10-30T05:55:30.506Z,958.4558716
2022-10-30T05:56:31.203Z,958.4884644
2022-10-30T05:57:31.866Z,958.4259644
2022-10-30T05:58:32.341Z,958.4714966
2022-10-30T05:59:32.827Z,958.4494019
2022-10-30T06:00:34.077Z,958.3793945
2022-10-30T06:01:35.034Z,958.4401855
2022-10-30T06:02:35.577Z,958.4759521
2022-10-30T06:04:06.793Z,958.4324951
2022-10-30T06:05:07.260Z,958.4351807
2022-10-30T06:06:08.735Z,958.4578247
2022-10-30T06:07:09.450Z,958.5010376
2022-10-30T06:08:10.018Z,958.5151367
2022-10-30T06:09:10.520Z,958.5309448
2022-10-30T06:10:11.038Z,958.5015869
2022-10-30T06:11:12.283Z,958.491394
2022-10-30T06:12:13.058Z,958.4946899
2022-10-30T06:13:13.645Z,958.5
2022-10-30T06:14:14.100Z,958.5120239
2022-10-30T06:15:14.655Z,958.5337524
2022-10-30T06:16:15.279Z,958.5158081
2022-10-30T06:17:16.072Z,958.5033569
2022-10-30T06:18:16.855Z,958.4847412
2022-10-30T06:19:18.857Z,958.5380249
2022-10-30T06:20:18.599Z,958.5498657
2022-10-30T06:21:19.142Z,958.5742188
2022-10-30T06:22:19.898Z,958.541748
2022-10-30T06:23:20.804Z,958.619751
2022-10-30T06:24:21.403Z,958.5612793
2022-10-30T06:25:21.907Z,958.5602417
2022-10-30T06:26:22.411Z,958.6047363
2022-10-30T06:27:23.116Z,958.5803223
2022-10-30T06:28:24.594Z,958.5976563
2022-10-30T06:29:25.377Z,958.5579834
2022-10-30T06:30:26.563Z,958.5580444
2022-10-30T06:31:27.035Z,958.5802612
2022-10-30T06:32:27.760Z,958.5720825
2022-10-30T06:33:28.507Z,958.5483398
2022-10-30T06:34:29.223Z,958.5370483
2022-10-30T06:35:29.703Z,958.5396118
2022-10-30T06:36:30.187Z,958.6118774
2022-10-30T06:37:30.675Z,958.6095581
2022-10-30T06:38:31.415Z,958.5842285
2022-10-30T06:39:32.135Z,958.6134644
2022-10-30T06:40:33.604Z,958.6020508
2022-10-30T06:41:34.100Z,958.62146
2022-10-30T06:42:34.619Z,958.6051636
2022-10-30T06:43:35.883Z,958.6628418
2022-10-30T06:45:06.995Z,958.6335449
2022-10-30T06:47:08.044Z,958.6606445
2022-10-30T06:48:08.605Z,958.6290894
2022-10-30T06:49:09.392Z,958.6199951
2022-10-30T06:50:10.078Z,958.6713867
2022-10-30T06:51:11.433Z,958.6112671
2022-10-30T06:52:11.933Z,958.6610718
2022-10-30T06:53:12.458Z,958.6530762
2022-10-30T06:54:13.224Z,958.6882935
2022-10-30T06:55:13.922Z,958.6785278
2022-10-30T06:56:14.505Z,958.7017212
2022-10-30T06:57:15.002Z,958.743042
2022-10-30T06:58:15.581Z,958.7011108
2022-10-30T06:59:16.260Z,958.7304688
2022-10-30T07:00:17.700Z,958.795105
2022-10-30T07:01:18.459Z,958.7545166
2022-10-30T07:02:18.999Z,958.7776489
2022-10-30T07:03:20.735Z,958.7426758
2022-10-30T07:04:21.385Z,958.7616577
2022-10-30T07:05:22.174Z,958.7249146
2022-10-30T07:06:22.868Z,958.7276611
2022-10-30T07:07:23.364Z,958.7648926
2022-10-30T07:08:23.909Z,958.7324219
2022-10-30T07:09:24.555Z,958.789917
2022-10-30T07:10:26.181Z,958.7355957
2022-10-30T07:11:26.949Z,958.8035278
2022-10-30T07:12:27.552Z,958.8032837
2022-10-30T07:13:28.053Z,958.7878418
2022-10-30T07:14:28.684Z,958.8337402
2022-10-30T07:15:29.483Z,958.8120117
2022-10-30T07:16:30.091Z,958.8300171
2022-10-30T07:17:30.658Z,958.8369751
2022-10-30T07:18:31.360Z,958.8370361
2022-10-30T07:19:31.685Z,958.8251343
2022-10-30T07:20:33.195Z,958.8131104
2022-10-30T07:21:33.973Z,958.8126831
2022-10-30T07:22:34.690Z,958.8743896
2022-10-30T07:24:05.714Z,958.8341675
2022-10-30T07:25:06.141Z,958.8131104
2022-10-30T07:26:06.788Z,958.8272095
2022-10-30T07:27:07.476Z,958.7803345
2022-10-30T07:28:08.880Z,958.8178711
2022-10-30T07:29:10.394Z,958.7474365
2022-10-30T07:30:11.103Z,958.7697144
2022-10-30T07:31:11.873Z,958.7651367
2022-10-30T07:32:12.629Z,958.7636108
2022-10-30T17:29:06.794Z,957.8703003
2022-10-30T17:30:07.207Z,957.8931274
2022-10-30T17:31:08.484Z,957.8879395
2022-10-30T17:32:08.921Z,957.8789673
2022-10-30T17:33:09.432Z,957.9141235
2022-10-30T17:34:09.971Z,957.9257813
2022-10-30T17:35:11.447Z,957.9076538
2022-10-30T17:36:11.954Z,957.9265137
2022-10-30T17:37:12.476Z,957.9154663
2022-10-30T17:38:12.962Z,957.968689
2022-10-30T17:39:14.219Z,958.0028687
2022-10-30T17:40:14.673Z,958.045166
2022-10-30T17:41:15.140Z,958.0770874
2022-10-30T17:42:15.617Z,958.0753174
2022-10-30T17:43:16.111Z,958.0973511
2022-10-30T17:44:16.666Z,958.1315918
2022-10-30T17:45:17.915Z,958.1387329
2022-10-30T17:46:20.088Z,958.1598511
2022-10-30T17:47:18.835Z,958.1851807
2022-10-30T17:48:19.344Z,958.2029419
2022-10-30T17:49:19.865Z,958.2168579
2022-10-30T17:50:20.651Z,958.2067871
2022-10-30T17:51:21.949Z,958.2858887
2022-10-30T17:52:22.414Z,958.2555542
2022-10-30T17:53:23.438Z,958.2576294
2022-10-30T17:54:23.963Z,958.3032837
2022-10-30T17:55:24.986Z,958.2800903
2022-10-30T17:56:25.457Z,958.3162231
2022-10-30T17:57:26.027Z,958.2609253
2022-10-30T17:58:26.483Z,958.28302
2022-10-30T17:59:27.437Z,958.2718506
2022-10-30T18:00:58.171Z,958.2683105
2022-10-30T18:01:58.711Z,958.3099976
2022-10-30T18:02:59.453Z,958.2910767
2022-10-30T18:03:59.655Z,958.3464966
2022-10-30T18:05:00.702Z,958.2971802
2022-10-30T18:06:01.171Z,958.3476563
2022-10-30T18:07:01.628Z,958.3457642
2022-10-30T18:08:02.897Z,958.3858032
2022-10-30T18:09:03.394Z,958.3852539
2022-10-30T18:10:04.001Z,958.367981
2022-10-30T18:11:04.436Z,958.3758545
2022-10-30T18:12:05.685Z,958.3461914
2022-10-30T18:13:06.166Z,958.3822021
2022-10-30T18:14:06.698Z,958.3956909
2022-10-30T18:15:07.729Z,958.380127
2022-10-30T18:16:08.221Z,958.4168091
2022-10-30T18:17:08.780Z,958.4285889
2022-10-30T18:18:09.265Z,958.4332886
2022-10-30T18:19:09.767Z,958.4241943
2022-10-30T18:20:10.250Z,958.4418945
2022-10-30T18:21:10.762Z,958.4448242
2022-10-30T18:22:11.340Z,958.4818726
2022-10-30T18:23:31.622Z,958.4724121
2022-10-30T18:24:13.226Z,958.4985962
2022-10-30T18:25:14.724Z,958.4656372
2022-10-30T18:26:15.164Z,958.4592285
2022-10-30T18:27:15.628Z,958.5007935
2022-10-30T18:28:16.932Z,958.4988403
2022-10-30T18:29:17.427Z,958.5148315
2022-10-30T18:30:17.999Z,958.4910889
2022-10-30T18:31:18.423Z,958.5201416
2022-10-30T18:32:18.915Z,958.5317383
2022-10-30T18:33:19.417Z,958.4927979
2022-10-30T18:34:19.948Z,958.5402832
2022-10-30T18:35:21.435Z,958.5612793
2022-10-30T18:36:21.911Z,958.5521851
2022-10-30T18:37:22.395Z,958.5300293
2022-10-30T18:38:22.943Z,958.5175171
2022-10-30T18:39:24.286Z,958.5320435
2022-10-30T18:40:24.705Z,958.5490112
2022-10-30T18:41:25.237Z,958.5251465
2022-10-30T18:42:25.761Z,958.5340576
2022-10-30T18:43:26.283Z,958.5516968
2022-10-30T18:44:58.210Z,958.5513916
2022-10-30T18:45:58.713Z,958.5334473
2022-10-30T18:47:02.712Z,958.5767212
2022-10-30T18:48:00.033Z,958.5501709
2022-10-30T18:49:00.258Z,958.5593872
2022-10-30T18:50:00.855Z,958.5722046
2022-10-30T18:51:01.342Z,958.5172119
2022-10-30T18:52:01.876Z,958.5247803
2022-10-30T18:53:02.395Z,958.5545044
2022-10-30T18:54:02.981Z,958.5522461
2022-10-30T18:55:04.231Z,958.562439
2022-10-30T18:56:04.783Z,958.5585327
2022-10-30T18:57:05.240Z,958.5369263
2022-10-30T18:58:05.782Z,958.5499878
2022-10-30T18:59:06.347Z,958.538269
2022-10-30T19:00:06.869Z,958.5161133
2022-10-30T19:01:11.862Z,958.5109253
2022-10-30T19:02:07.978Z,958.5060425
2022-10-30T19:03:08.413Z,958.5181274
2022-10-30T19:04:08.958Z,958.5309448
2022-10-30T19:05:10.222Z,958.5097046
2022-10-30T19:06:10.847Z,958.4972534
2022-10-30T19:07:11.317Z,958.5214233
2022-10-30T19:08:11.886Z,958.5181885
2022-10-30T19:09:12.380Z,958.5407715
2022-10-30T19:10:12.912Z,958.5698242
2022-10-30T19:11:13.496Z,958.588623
2022-10-30T19:12:14.029Z,958.5673218
2022-10-30T19:13:15.075Z,958.6447754
2022-10-30T19:14:15.042Z,958.6029663
2022-10-30T19:15:16.213Z,958.6745605
2022-10-30T19:16:16.754Z,958.6637573
2022-10-30T19:17:17.283Z,958.6523438
2022-10-30T19:18:17.885Z,958.6448364
2022-10-30T19:19:18.433Z,958.6578979
2022-10-30T19:20:20.261Z,958.6824341
2022-10-30T19:21:19.983Z,958.6716309
2022-10-30T19:22:20.798Z,958.6706543
2022-10-30T19:23:21.407Z,958.6680298
2022-10-30T19:24:21.979Z,958.6559448
2022-10-30T19:25:23.218Z,958.6507568
2022-10-30T19:26:23.796Z,958.6415405
2022-10-30T19:27:24.431Z,958.6660767
2022-10-30T19:28:24.968Z,958.6530762
2022-10-30T19:29:26.222Z,958.6831055
2022-10-30T19:30:57.096Z,958.666748
2022-10-30T19:31:57.688Z,958.736084
2022-10-30T19:32:58.182Z,958.7481079
2022-10-30T19:33:58.729Z,958.7717285
2022-10-30T19:34:59.262Z,958.7553101
2022-10-30T19:36:00.490Z,958.7592163
2022-10-30T19:37:01.069Z,958.7645264
2022-10-30T19:38:01.902Z,958.8013916
2022-10-30T19:39:08.519Z,958.7759399
2022-10-30T19:40:02.654Z,958.7527466
2022-10-30T19:41:03.256Z,958.7918701
2022-10-30T19:42:03.829Z,958.7909546
2022-10-30T19:43:04.294Z,958.7850952
2022-10-30T19:44:04.806Z,958.7579956
2022-10-30T19:45:05.402Z,958.7579956
2022-10-30T19:46:06.471Z,958.7537231
2022-10-30T19:47:07.133Z,958.7837524
2022-10-30T19:48:07.603Z,958.7804565
2022-10-30T19:49:08.111Z,958.7720337
2022-10-30T19:50:08.610Z,958.802002
2022-10-30T19:51:09.196Z,958.8079834
2022-10-30T19:52:09.992Z,958.7808838
2022-10-30T19:53:10.493Z,958.8010864
2022-10-30T19:54:11.067Z,958.7619019
2022-10-30T19:55:11.744Z,958.730835
2022-10-30T19:56:13.075Z,958.7282715
2022-10-30T19:57:13.700Z,958.7396851
2022-10-30T19:58:14.162Z,958.6847534
2022-10-30T19:59:14.902Z,958.690918
2022-10-30T20:00:15.515Z,958.734436
2022-10-30T20:01:16.332Z,958.7023315
2022-10-30T20:02:16.702Z,958.7471924
2022-10-30T20:03:17.101Z,958.6807861
2022-10-30T20:04:17.796Z,958.6994629
2022-10-30T20:05:19.198Z,958.7148438
2022-10-30T20:06:19.715Z,958.7252197
2022-10-30T20:07:21.351Z,958.7285156
2022-10-30T20:08:21.818Z,958.7432861
2022-10-30T20:09:22.347Z,958.7608643
2022-10-30T20:10:22.999Z,958.7503662
2022-10-30T20:11:23.611Z,958.7533569
2022-10-30T20:12:24.289Z,958.7686768
2022-10-30T20:13:56.105Z,958.7856445
2022-10-30T20:14:56.639Z,958.7938232
2022-10-30T20:15:58.296Z,958.8156738
2022-10-30T20:16:58.929Z,958.7803955
2022-10-30T20:17:59.846Z,958.7731934
2022-10-30T20:19:00.109Z,958.7559204
2022-10-30T20:20:00.855Z,958.7559204
2022-10-30T20:21:01.692Z,958.739502
2022-10-30T20:22:02.310Z,958.7523193
2022-10-30T20:23:02.852Z,958.7359619
2022-10-30T20:24:03.348Z,958.7185669
2022-10-30T20:25:04.135Z,958.7437744
2022-10-30T20:26:05.642Z,958.7796631
2022-10-30T20:27:06.233Z,958.7695313
2022-10-30T20:28:07.207Z,958.7581177
2022-10-30T20:29:07.366Z,958.7611084
2022-10-30T20:30:08.835Z,958.8204956
2022-10-30T20:31:09.588Z,958.8303223
2022-10-30T20:32:10.467Z,958.8423462
2022-10-30T20:33:11.053Z,958.859314
2022-10-30T20:34:11.547Z,958.8654785
2022-10-30T20:35:12.220Z,958.9400024
2022-10-30T20:36:13.691Z,958.8948364
2022-10-30T20:37:14.423Z,958.9265747
2022-10-30T20:38:14.977Z,958.9385986
2022-10-30T20:39:15.478Z,958.9310913
2022-10-30T20:40:16.148Z,958.9333496
2022-10-30T20:41:16.902Z,958.9437256
2022-10-30T20:42:17.623Z,958.9182739
2022-10-30T20:43:19.214Z,958.9401855
2022-10-30T20:44:19.824Z,958.9385376
2022-10-30T20:45:20.628Z,958.9266968
2022-10-30T20:46:22.141Z,958.9348145
2022-10-30T20:47:23.033Z,958.9576416
2022-10-30T20:48:23.777Z,958.9561157
2022-10-30T20:49:24.244Z,958.9387207
2022-10-30T20:50:25.337Z,958.9873657
2022-10-30T20:51:56.690Z,959.0262451
2022-10-30T20:52:57.340Z,959.001709
2022-10-30T20:53:57.944Z,959.0317383
2022-10-30T20:54:58.411Z,959.022522
2022-10-30T20:55:59.716Z,959.0310059
2022-10-30T20:57:00.488Z,959.0234375
2022-10-30T20:58:01.714Z,959.0690918
2022-10-30T20:59:01.928Z,959.0393677
2022-10-30T21:00:02.579Z,959.0700073